Time;durP1;ratioP1;P1;durP2;ratioP2;P2;SDS_P1;SDS_P2;PMS_P1;PMS_P2;Temp;Humidity;BMP_temperature;BMP_pressure;BME280_temperature;BME280_humidity;BME280_pressure;Samples;Min_cycle;Max_cycle;Signal;HPM_P1;HPM_P2
2022/03/14 00:01:35;;;;;;;9.05;3.92;;;;;;;7.93;49.27;96743.50;5024181;28;20417;-67
2022/03/14 00:04:01;;;;;;;7.13;3.67;;;;;;;8.12;48.27;96745.56;5026222;28;20444;-66
2022/03/14 00:06:27;;;;;;;9.73;3.80;;;;;;;8.42;47.35;96752.22;5013626;28;20045;-66
2022/03/14 00:08:57;;;;;;;7.80;3.90;;;;;;;8.72;46.40;96767.41;5021992;28;20524;-66
2022/03/14 00:11:24;;;;;;;6.10;3.83;;;;;;;8.87;46.28;96765.78;5010347;28;20111;-65
2022/03/14 00:13:50;;;;;;;7.50;3.70;;;;;;;9.05;45.40;96782.63;5013812;28;20045;-65
2022/03/14 00:16:28;;;;;;;11.65;4.18;;;;;;;9.10;45.74;96796.00;5009532;28;20048;-66
2022/03/14 00:18:55;;;;;;;14.77;5.40;;;;;;;9.27;46.81;96803.03;5017931;28;20049;-66
2022/03/14 00:21:22;;;;;;;13.15;5.53;;;;;;;9.38;46.85;96812.25;5008907;28;20140;-66
2022/03/14 00:23:48;;;;;;;15.13;6.47;;;;;;;9.42;47.37;96823.28;5021025;28;20498;-66
2022/03/14 00:26:13;;;;;;;15.52;6.97;;;;;;;9.49;49.47;96839.84;5009187;28;20041;-66
2022/03/14 00:28:39;;;;;;;16.73;9.07;;;;;;;9.37;50.02;96838.03;5015351;28;20078;-65
2022/03/14 00:31:04;;;;;;;20.25;8.85;;;;;;;9.36;53.01;96841.88;5006182;28;20034;-69
2022/03/14 00:33:30;;;;;;;18.63;9.57;;;;;;;9.30;54.76;96867.91;5017647;28;20107;-64
2022/03/14 00:35:56;;;;;;;19.60;10.82;;;;;;;9.25;57.04;96865.44;5023005;28;20076;-65
2022/03/14 00:38:23;;;;;;;20.17;10.43;;;;;;;9.22;59.71;96879.81;5006612;28;20598;-65
2022/03/14 00:40:49;;;;;;;20.42;10.20;;;;;;;9.14;61.67;96889.78;5009992;28;20038;-66
2022/03/14 00:43:14;;;;;;;18.08;9.45;;;;;;;9.16;64.51;96884.75;5002335;28;20060;-65
2022/03/14 00:45:39;;;;;;;20.83;10.43;;;;;;;8.98;67.46;96890.59;5010574;28;20172;-66
2022/03/14 00:48:05;;;;;;;18.80;8.90;;;;;;;8.93;69.99;96898.22;5004900;28;20029;-66
2022/03/14 00:50:30;;;;;;;18.88;9.73;;;;;;;8.87;71.50;96905.88;5003360;28;20466;-64
2022/03/14 00:52:56;;;;;;;16.83;9.18;;;;;;;8.82;72.83;96916.28;5009681;28;20154;-66
2022/03/14 00:55:21;;;;;;;18.65;8.18;;;;;;;8.76;74.75;96926.66;5015067;28;20590;-66
2022/03/14 00:57:47;;;;;;;20.33;8.45;;;;;;;8.75;76.81;96946.91;5016057;28;20112;-65
2022/03/14 01:00:12;;;;;;;17.52;8.65;;;;;;;8.69;79.61;96954.56;5001141;28;20029;-69
2022/03/14 01:02:38;;;;;;;21.13;7.40;;;;;;;8.65;81.70;96966.53;5014954;28;20041;-65
2022/03/14 01:05:03;;;;;;;15.68;8.68;;;;;;;8.64;83.20;96973.91;5013118;28;20054;-69
2022/03/14 01:07:29;;;;;;;14.32;7.53;;;;;;;8.53;84.77;96991.94;5003674;28;20038;-65
2022/03/14 01:09:54;;;;;;;14.95;7.32;;;;;;;8.48;85.26;96987.53;5006604;28;20034;-65
2022/03/14 01:12:20;;;;;;;14.88;7.93;;;;;;;8.43;87.18;96987.78;4999035;28;20049;-66
2022/03/14 01:14:45;;;;;;;11.43;6.63;;;;;;;8.40;88.04;97000.13;5002285;28;20430;-66
2022/03/14 01:17:11;;;;;;;10.95;6.68;;;;;;;8.33;89.87;97020.97;4997584;28;20367;-65
2022/03/14 01:19:38;;;;;;;15.50;7.28;;;;;;;8.20;91.29;97023.69;5002611;28;20104;-66
2022/03/14 01:22:10;;;;;;;14.07;7.25;;;;;;;8.13;91.75;97022.69;5000508;28;20493;-68
2022/03/14 01:24:39;;;;;;;11.23;6.22;;;;;;;8.10;91.88;97032.34;5007962;28;20066;-66
2022/03/14 01:27:08;;;;;;;11.27;6.35;;;;;;;8.06;93.01;97036.13;4999235;28;20471;-66
2022/03/14 01:29:34;;;;;;;11.25;6.65;;;;;;;8.05;93.52;97038.06;5000810;28;20061;-65
2022/03/14 01:32:01;;;;;;;14.10;6.45;;;;;;;8.00;92.68;97046.47;5002276;28;20517;-66
2022/03/14 01:34:27;;;;;;;12.77;6.55;;;;;;;7.95;93.75;97044.75;4997336;28;20494;-66
2022/03/14 01:36:52;;;;;;;12.02;6.30;;;;;;;7.96;94.38;97050.97;5002124;28;20057;-66
2022/03/14 01:39:18;;;;;;;9.95;5.95;;;;;;;7.92;94.34;97064.50;4996881;28;20050;-64
2022/03/14 01:41:43;;;;;;;10.30;6.40;;;;;;;7.89;95.58;97070.66;5001674;28;20052;-69
2022/03/14 01:44:09;;;;;;;10.20;5.85;;;;;;;7.94;94.46;97080.53;5012821;28;20052;-67
2022/03/14 01:46:35;;;;;;;11.13;5.43;;;;;;;7.93;94.27;97084.41;5000071;28;20042;-65
2022/03/14 01:49:00;;;;;;;11.02;5.75;;;;;;;7.92;94.62;97102.69;5002180;28;20038;-66
2022/03/14 01:51:26;;;;;;;11.98;5.95;;;;;;;7.90;94.73;97104.97;4997313;28;20505;-67
2022/03/14 01:53:52;;;;;;;10.38;5.35;;;;;;;7.92;94.54;97116.31;5002538;28;20050;-66
2022/03/14 01:56:18;;;;;;;9.15;5.43;;;;;;;7.85;94.52;97111.44;4996327;28;20046;-64
2022/03/14 01:58:46;;;;;;;9.18;5.65;;;;;;;7.77;96.01;97109.59;5001742;28;20048;-68
2022/03/14 02:01:11;;;;;;;9.68;5.53;;;;;;;7.66;97.05;97108.47;4996180;28;20046;-69
2022/03/14 02:03:37;;;;;;;8.32;4.82;;;;;;;7.68;97.32;97110.84;5001967;28;20553;-66
2022/03/14 02:06:02;;;;;;;10.65;5.60;;;;;;;7.65;96.87;97118.56;5000991;28;20045;-68
2022/03/14 02:08:28;;;;;;;10.57;5.60;;;;;;;7.62;97.57;97124.69;4999003;28;20040;-67
2022/03/14 02:10:53;;;;;;;9.70;5.13;;;;;;;7.63;98.34;97118.13;5001785;28;20049;-66
2022/03/14 02:13:19;;;;;;;7.95;4.60;;;;;;;7.65;97.83;97123.22;4997217;28;20119;-66
2022/03/14 02:15:45;;;;;;;7.38;4.35;;;;;;;7.61;97.75;97133.19;5001143;28;20531;-66
2022/03/14 02:18:11;;;;;;;8.85;5.00;;;;;;;7.62;97.67;97132.06;4992798;28;20100;-68
2022/03/14 02:20:36;;;;;;;7.78;4.32;;;;;;;7.71;96.44;97129.25;4999453;28;20494;-67
2022/03/14 02:23:02;;;;;;;7.03;3.70;;;;;;;7.78;94.81;97134.97;5001322;28;20034;-66
2022/03/14 02:25:27;;;;;;;6.55;3.75;;;;;;;7.85;94.38;97136.00;4996410;28;20064;-66
2022/03/14 02:27:53;;;;;;;5.93;3.70;;;;;;;7.85;94.09;97141.44;5001627;28;20049;-66
2022/03/14 02:30:18;;;;;;;6.88;3.78;;;;;;;7.91;93.85;97154.88;4996064;28;20505;-68
2022/03/14 02:32:45;;;;;;;6.38;4.03;;;;;;;7.85;93.35;97159.75;5000971;28;20121;-66
2022/03/14 02:35:12;;;;;;;8.05;4.07;;;;;;;7.84;94.11;97161.66;4996137;28;20038;-66
2022/03/14 02:37:38;;;;;;;9.57;3.92;;;;;;;7.85;94.40;97168.72;5000205;28;20050;-66
2022/03/14 02:40:05;;;;;;;8.88;4.10;;;;;;;7.88;93.95;97172.69;4997212;28;20050;-67
2022/03/14 02:42:31;;;;;;;7.20;4.57;;;;;;;7.85;94.23;97178.84;5001436;28;20377;-65
2022/03/14 02:44:56;;;;;;;6.88;4.57;;;;;;;7.85;94.29;97178.84;5001594;28;20474;-66
2022/03/14 02:47:22;;;;;;;6.63;4.07;;;;;;;7.85;93.72;97181.56;4995509;28;20125;-66
2022/03/14 02:49:48;;;;;;;6.90;4.85;;;;;;;7.83;94.66;97194.72;5002574;28;20124;-66
2022/03/14 02:52:13;;;;;;;6.50;4.03;;;;;;;7.79;94.82;97193.81;4996013;28;20495;-68
2022/03/14 02:54:40;;;;;;;6.85;4.22;;;;;;;7.83;94.96;97202.91;5000524;28;20085;-65
2022/03/14 02:57:06;;;;;;;8.05;4.63;;;;;;;7.82;94.12;97206.78;4995038;28;20038;-67
2022/03/14 02:59:33;;;;;;;6.03;3.05;;;;;;;7.89;92.44;97203.50;5001178;28;20060;-66
2022/03/14 03:01:58;;;;;;;5.88;3.75;;;;;;;7.87;92.92;97212.03;5000490;28;20045;-65
2022/03/14 03:04:24;;;;;;;4.72;3.28;;;;;;;7.77;91.34;97209.72;4996125;28;20514;-65
2022/03/14 03:06:50;;;;;;;4.72;2.85;;;;;;;7.74;91.71;97213.09;5000040;28;20046;-67
2022/03/14 03:09:15;;;;;;;4.25;2.60;;;;;;;7.69;91.52;97225.03;4995776;28;20038;-66
2022/03/14 03:11:41;;;;;;;4.65;2.80;;;;;;;7.75;91.08;97225.63;5000329;28;20037;-65
2022/03/14 03:14:07;;;;;;;4.47;2.60;;;;;;;7.70;90.74;97221.16;4995273;28;20061;-66
2022/03/14 03:16:34;;;;;;;4.90;1.92;;;;;;;7.64;91.32;97236.91;4999905;28;20045;-65
2022/03/14 03:19:00;;;;;;;4.03;1.75;;;;;;;7.58;91.57;97235.53;5000162;28;20054;-65
2022/03/14 03:21:25;;;;;;;3.50;2.00;;;;;;;7.51;91.58;97237.19;4994692;28;20053;-66
2022/03/14 03:23:51;;;;;;;2.92;1.75;;;;;;;7.40;92.92;97244.97;5000383;28;20107;-62
2022/03/14 03:26:16;;;;;;;2.78;1.90;;;;;;;7.39;92.87;97246.91;5003773;28;20046;-67
2022/03/14 03:28:42;;;;;;;4.22;1.40;;;;;;;7.34;93.29;97259.94;5000750;28;20046;-64
2022/03/14 03:31:10;;;;;;;2.80;1.80;;;;;;;7.35;93.45;97267.00;4996220;28;20811;-65
2022/03/14 03:33:36;;;;;;;4.82;2.20;;;;;;;7.34;94.75;97260.72;5006337;28;20080;-65
2022/03/14 03:36:02;;;;;;;4.05;2.00;;;;;;;7.29;95.88;97258.19;5009792;28;20058;-65
2022/03/14 03:38:27;;;;;;;4.35;2.33;;;;;;;7.24;97.79;97258.41;5004742;28;20760;-65
2022/03/14 03:40:53;;;;;;;4.63;2.55;;;;;;;7.28;98.49;97271.03;5009982;28;20148;-66
2022/03/14 03:43:19;;;;;;;7.07;2.40;;;;;;;7.19;100.00;97264.84;5007186;28;20128;-67
2022/03/14 03:45:44;;;;;;;4.75;2.50;;;;;;;7.12;100.00;97261.06;5015034;28;20531;-64
2022/03/14 03:48:10;;;;;;;4.18;2.30;;;;;;;7.02;100.00;97284.00;5005271;28;20041;-66
2022/03/14 03:50:35;;;;;;;4.38;2.30;;;;;;;7.06;100.00;97285.75;5019814;28;20044;-67
2022/03/14 03:53:00;;;;;;;3.85;2.13;;;;;;;7.02;99.90;97294.91;5019971;28;20037;-67
2022/03/14 03:55:26;;;;;;;2.92;1.60;;;;;;;7.05;98.29;97305.94;5003271;28;20053;-65
2022/03/14 03:57:52;;;;;;;2.53;1.45;;;;;;;6.99;98.78;97299.09;5031571;23;20060;-67
2022/03/14 04:00:19;;;;;;;2.53;1.63;;;;;;;6.89;99.12;97313.84;5010391;28;20049;-67
2022/03/14 04:02:46;;;;;;;1.83;1.20;;;;;;;6.90;99.14;97317.41;4988294;28;20050;-67
2022/03/14 04:05:16;;;;;;;1.73;1.40;;;;;;;6.86;99.19;97325.41;4978256;28;20040;-67
2022/03/14 04:07:43;;;;;;;1.48;1.20;;;;;;;6.84;100.00;97340.47;5008405;28;20524;-66
2022/03/14 04:10:12;;;;;;;1.38;1.10;;;;;;;6.83;99.95;97352.50;5016322;28;20123;-67
2022/03/14 04:12:39;;;;;;;1.35;1.13;;;;;;;6.91;99.88;97356.31;5021910;28;20053;-68
2022/03/14 04:15:09;;;;;;;2.45;1.63;;;;;;;6.81;100.00;97355.53;5018795;28;20110;-63
2022/03/14 04:17:42;;;;;;;1.67;1.20;;;;;;;6.85;99.32;97347.53;5028236;28;20068;-66
2022/03/14 04:20:11;;;;;;;1.60;1.35;;;;;;;6.96;98.55;97353.41;4998569;28;20375;-67
2022/03/14 04:22:40;;;;;;;1.77;1.20;;;;;;;6.85;98.51;97370.09;5018518;28;20555;-67
2022/03/14 04:25:07;;;;;;;1.73;1.10;;;;;;;6.79;99.55;97378.75;4999517;28;20104;-67
2022/03/14 04:27:33;;;;;;;3.75;1.15;;;;;;;6.72;99.58;97389.34;5018904;28;20045;-67
2022/03/14 04:29:58;;;;;;;1.42;1.00;;;;;;;6.79;99.51;97386.94;5020083;28;20136;-67
2022/03/14 04:32:24;;;;;;;1.65;1.10;;;;;;;6.74;99.32;97390.63;5014604;28;20124;-68
2022/03/14 04:34:50;;;;;;;1.95;1.10;;;;;;;6.72;99.37;97392.91;5023151;28;20034;-67
2022/03/14 04:37:16;;;;;;;1.77;1.00;;;;;;;6.74;98.66;97400.75;5017693;28;20034;-68
2022/03/14 04:39:42;;;;;;;2.05;1.08;;;;;;;6.76;98.56;97403.94;5023336;28;20058;-67
2022/03/14 04:42:09;;;;;;;1.50;0.98;;;;;;;6.74;98.69;97409.69;5019642;28;20062;-65
2022/03/14 04:44:35;;;;;;;1.88;1.10;;;;;;;6.74;98.41;97417.88;5013265;28;20116;-68
2022/03/14 04:47:01;;;;;;;2.65;0.82;;;;;;;6.80;98.35;97411.13;5008659;28;20664;-68
2022/03/14 04:49:28;;;;;;;2.70;1.17;;;;;;;6.70;98.75;97416.94;5000986;28;20045;-67
2022/03/14 04:51:55;;;;;;;3.00;1.00;;;;;;;6.67;98.62;97423.00;5022425;28;20474;-67
2022/03/14 04:54:23;;;;;;;1.70;0.90;;;;;;;6.59;99.30;97426.53;5017749;28;20038;-68
2022/03/14 04:56:49;;;;;;;1.00;0.90;;;;;;;6.55;100.00;97433.75;5022567;28;20046;-67
2022/03/14 04:59:15;;;;;;;2.30;0.90;;;;;;;6.64;99.19;97434.53;5015744;28;20041;-67
2022/03/14 05:01:40;;;;;;;1.23;1.00;;;;;;;6.63;98.07;97433.75;5022715;28;20095;-67
2022/03/14 05:04:06;;;;;;;1.83;0.90;;;;;;;6.61;98.50;97432.44;5017438;28;20506;-64
2022/03/14 05:06:35;;;;;;;1.13;0.75;;;;;;;6.58;97.77;97454.88;5004006;28;20041;-68
2022/03/14 05:09:01;;;;;;;1.03;0.80;;;;;;;6.65;96.90;97456.00;5023798;28;20041;-67
2022/03/14 05:11:27;;;;;;;1.75;1.00;;;;;;;6.55;97.07;97459.03;5013628;28;20042;-68
2022/03/14 05:13:53;;;;;;;1.92;0.77;;;;;;;6.61;97.22;97454.22;5003728;28;20053;-66
2022/03/14 05:16:19;;;;;;;2.50;1.05;;;;;;;6.58;96.42;97460.31;5016650;28;20053;-67
2022/03/14 05:18:45;;;;;;;1.60;0.93;;;;;;;6.63;96.37;97460.97;5004351;28;20072;-65
2022/03/14 05:21:11;;;;;;;0.98;0.80;;;;;;;6.51;96.62;97452.63;4999246;28;20088;-66
2022/03/14 05:23:36;;;;;;;1.10;0.70;;;;;;;6.52;96.34;97454.25;5021572;28;20152;-67
2022/03/14 05:26:02;;;;;;;1.27;0.80;;;;;;;6.46;96.68;97460.97;5025644;28;20053;-64
2022/03/14 05:28:27;;;;;;;1.42;0.80;;;;;;;6.36;97.55;97459.38;5018741;28;20099;-68
2022/03/14 05:30:54;;;;;;;1.02;0.88;;;;;;;6.43;96.96;97469.78;5030032;28;20064;-67
2022/03/14 05:33:19;;;;;;;0.90;0.70;;;;;;;6.39;97.29;97466.91;5027711;28;20494;-66
2022/03/14 05:35:45;;;;;;;1.52;0.85;;;;;;;6.25;97.94;97467.06;5005713;28;20045;-66
2022/03/14 05:38:10;;;;;;;1.98;1.00;;;;;;;6.24;97.66;97470.88;5016935;28;20044;-64
2022/03/14 05:40:35;;;;;;;1.40;0.80;;;;;;;6.26;97.50;97478.72;5022375;28;20375;-66
2022/03/14 05:43:11;;;;;;;1.58;0.60;;;;;;;6.25;97.92;97475.22;5020005;28;20045;-66
2022/03/14 05:45:36;;;;;;;1.35;0.73;;;;;;;6.19;97.81;97495.50;5002012;28;20393;-66
2022/03/14 05:48:03;;;;;;;0.57;0.55;;;;;;;6.27;97.23;97491.22;5021961;28;20045;-66
2022/03/14 05:50:29;;;;;;;1.30;0.90;;;;;;;6.35;96.01;97495.84;5008643;28;20053;-66
2022/03/14 05:52:55;;;;;;;1.25;1.02;;;;;;;6.39;96.87;97505.00;5027821;28;20049;-66
2022/03/14 05:55:20;;;;;;;3.53;1.02;;;;;;;6.43;96.34;97511.41;5015274;28;20069;-64
2022/03/14 05:57:46;;;;;;;2.28;1.05;;;;;;;6.44;95.81;97512.19;5027126;28;20116;-66
2022/03/14 06:00:13;;;;;;;1.42;0.85;;;;;;;6.45;95.39;97508.38;5022187;28;20197;-66
2022/03/14 06:02:45;;;;;;;3.17;0.85;;;;;;;6.39;95.97;97523.22;5018748;28;20057;-67
2022/03/14 06:05:10;;;;;;;0.85;0.82;;;;;;;6.43;95.72;97519.56;5017041;28;20498;-64
2022/03/14 06:07:36;;;;;;;1.67;0.85;;;;;;;6.66;93.82;97519.41;5027176;28;20103;-68
2022/03/14 06:10:01;;;;;;;1.10;0.60;;;;;;;6.61;93.03;97525.81;5020590;28;20152;-65
2022/03/14 06:12:29;;;;;;;0.98;0.73;;;;;;;6.56;92.94;97519.72;5017497;28;20042;-66
2022/03/14 06:14:56;;;;;;;1.90;1.05;;;;;;;6.32;93.48;97526.44;5020672;28;20050;-67
2022/03/14 06:17:22;;;;;;;1.15;0.70;;;;;;;6.31;94.40;97535.72;4996850;28;20154;-66
2022/03/14 06:19:48;;;;;;;2.00;1.02;;;;;;;6.28;94.11;97542.59;5021489;28;20045;-67
2022/03/14 06:22:18;;;;;;;1.80;0.90;;;;;;;6.29;94.65;97546.13;5015491;28;20417;-67
2022/03/14 06:24:46;;;;;;;0.82;0.70;;;;;;;6.27;94.66;97548.34;5002997;28;20080;-68
2022/03/14 06:27:12;;;;;;;2.35;0.47;;;;;;;6.30;94.08;97553.16;5015440;28;20037;-67
2022/03/14 06:29:38;;;;;;;0.75;0.75;;;;;;;6.36;94.26;97551.09;5002096;28;20053;-68
2022/03/14 06:32:04;;;;;;;2.53;0.70;;;;;;;6.36;93.96;97551.88;5013669;28;20052;-63
2022/03/14 06:34:30;;;;;;;3.78;0.80;;;;;;;6.40;93.81;97552.06;5018314;28;20041;-65
2022/03/14 06:36:56;;;;;;;3.85;0.80;;;;;;;6.35;93.94;97554.91;5020323;28;20437;-67
2022/03/14 06:39:21;;;;;;;1.02;0.68;;;;;;;6.31;94.09;97557.47;5016264;28;20334;-66
2022/03/14 06:41:47;;;;;;;0.80;0.63;;;;;;;6.21;94.56;97557.78;5021718;28;20038;-69
2022/03/14 06:44:14;;;;;;;0.77;0.70;;;;;;;6.22;94.67;97559.38;5018232;28;20776;-67
2022/03/14 06:46:40;;;;;;;4.22;0.85;;;;;;;6.23;95.02;97560.97;5017764;28;20048;-68
2022/03/14 06:49:06;;;;;;;5.32;0.75;;;;;;;6.22;94.85;97554.75;5007080;28;20042;-67
2022/03/14 06:51:32;;;;;;;3.92;0.70;;;;;;;6.25;95.29;97564.19;5005704;28;20041;-67
2022/03/14 06:53:58;;;;;;;4.57;0.80;;;;;;;6.19;95.21;97566.25;5020421;28;20132;-66
2022/03/14 06:56:24;;;;;;;1.83;0.80;;;;;;;6.26;94.58;97569.31;5011177;28;21078;-67
2022/03/14 06:58:49;;;;;;;1.17;0.80;;;;;;;6.53;93.06;97580.25;5019880;28;20057;-66
2022/03/14 07:01:14;;;;;;;1.00;0.80;;;;;;;6.78;91.93;97586.81;5014076;28;20095;-67
2022/03/14 07:03:40;;;;;;;3.90;0.80;;;;;;;6.90;91.40;97581.53;5001802;28;20064;-67
2022/03/14 07:06:05;;;;;;;0.95;0.82;;;;;;;7.21;90.05;97578.63;4997779;28;20105;-67
2022/03/14 07:08:31;;;;;;;2.33;0.70;;;;;;;8.26;83.69;97591.09;5020440;28;20448;-67
2022/03/14 07:10:56;;;;;;;4.15;0.77;;;;;;;9.56;76.94;97594.75;5021478;28;20133;-68
2022/03/14 07:13:21;;;;;;;4.63;1.60;;;;;;;10.47;71.50;97596.59;5017833;28;22130;-68
2022/03/14 07:15:47;;;;;;;1.00;0.50;;;;;;;11.20;66.75;97601.09;5019097;28;20072;-67
2022/03/14 07:18:12;;;;;;;4.78;1.17;;;;;;;12.43;62.36;97594.88;5008651;28;20084;-68
2022/03/14 07:20:38;;;;;;;5.03;0.82;;;;;;;13.52;56.63;97596.03;5017543;28;20144;-70
2022/03/14 07:23:06;;;;;;;0.73;0.57;;;;;;;13.70;55.96;97598.28;5029900;28;20049;-64
2022/03/14 07:25:34;;;;;;;0.70;0.50;;;;;;;12.74;58.04;97604.19;5002604;28;20042;-68
2022/03/14 07:28:01;;;;;;;2.47;0.60;;;;;;;12.26;58.92;97597.19;5002825;28;20045;-68
2022/03/14 07:30:27;;;;;;;0.60;0.50;;;;;;;12.12;59.42;97619.59;4999905;28;20046;-68
2022/03/14 07:32:53;;;;;;;0.47;0.47;;;;;;;13.79;53.75;97609.06;5017605;28;20050;-68
2022/03/14 07:35:19;;;;;;;2.22;0.60;;;;;;;13.42;53.99;97612.31;5015243;28;20037;-67
2022/03/14 07:37:45;;;;;;;2.00;0.50;;;;;;;13.67;54.13;97613.59;5021755;28;20064;-68
2022/03/14 07:40:13;;;;;;;3.50;0.50;;;;;;;14.75;50.49;97618.16;4996159;28;20413;-66
2022/03/14 07:42:44;;;;;;;0.60;0.47;;;;;;;14.94;49.72;97616.44;5002712;28;20038;-68
2022/03/14 07:45:11;;;;;;;0.88;0.30;;;;;;;15.01;48.95;97622.84;5016173;28;20076;-67
2022/03/14 07:47:37;;;;;;;0.90;0.40;;;;;;;15.19;48.06;97616.78;5015355;28;20050;-66
2022/03/14 07:50:07;;;;;;;0.70;0.40;;;;;;;15.37;46.36;97636.31;5014039;28;20087;-65
2022/03/14 07:52:33;;;;;;;2.72;0.68;;;;;;;15.71;46.24;97628.03;5020770;28;20037;-67
2022/03/14 07:54:59;;;;;;;3.72;0.50;;;;;;;15.58;46.22;97633.81;5019796;28;20049;-65
2022/03/14 07:57:24;;;;;;;1.48;0.47;;;;;;;15.54;45.97;97637.69;5012997;28;20505;-64
2022/03/14 07:59:49;;;;;;;2.10;0.50;;;;;;;14.91;47.64;97642.81;5026184;28;20050;-67
2022/03/14 08:02:15;;;;;;;1.00;0.50;;;;;;;15.32;46.15;97639.41;5008201;28;20073;-66
2022/03/14 08:04:42;;;;;;;2.95;0.50;;;;;;;15.21;47.42;97642.03;5015851;28;20045;-67
2022/03/14 08:07:07;;;;;;;4.45;0.40;;;;;;;15.01;46.92;97650.44;5007249;28;20072;-66
2022/03/14 08:09:33;;;;;;;0.43;0.40;;;;;;;15.92;44.69;97647.63;5023276;28;20084;-66
2022/03/14 08:12:00;;;;;;;1.15;0.45;;;;;;;16.66;42.91;97656.97;5023672;28;20501;-67
2022/03/14 08:14:27;;;;;;;2.78;0.40;;;;;;;16.94;41.83;97661.16;5002664;28;20057;-67
2022/03/14 08:16:53;;;;;;;1.05;0.50;;;;;;;16.95;42.06;97674.59;5006024;28;20464;-68
2022/03/14 08:19:20;;;;;;;6.75;0.50;;;;;;;16.72;42.45;97674.81;5019182;28;20053;-67
2022/03/14 08:21:47;;;;;;;4.07;0.52;;;;;;;17.34;41.19;97673.22;5024288;28;20049;-66
2022/03/14 08:24:12;;;;;;;1.02;0.45;;;;;;;16.18;43.20;97673.53;5018515;28;20041;-67
2022/03/14 08:26:38;;;;;;;1.65;0.55;;;;;;;16.54;42.62;97691.25;5023495;28;20052;-67
2022/03/14 08:29:04;;;;;;;1.15;0.43;;;;;;;17.50;40.14;97678.47;5002126;28;20037;-64
2022/03/14 08:31:31;;;;;;;0.90;0.40;;;;;;;16.08;41.49;97690.81;5022145;28;20045;-66
2022/03/14 08:33:56;;;;;;;2.80;0.40;;;;;;;16.31;42.07;97685.91;5020063;28;20498;-67
2022/03/14 08:36:22;;;;;;;2.55;0.63;;;;;;;16.59;41.82;97699.19;5017429;28;20132;-68
2022/03/14 08:38:48;;;;;;;3.85;0.77;;;;;;;17.01;40.88;97691.63;5005243;28;20040;-68
2022/03/14 08:41:16;;;;;;;0.95;0.30;;;;;;;16.53;40.83;97695.22;5018262;28;20478;-68
2022/03/14 08:43:42;;;;;;;0.75;0.30;;;;;;;17.16;40.68;97698.06;5021263;28;20049;-68
2022/03/14 08:46:08;;;;;;;3.28;0.95;;;;;;;17.66;39.33;97692.78;5018565;28;20037;-68
2022/03/14 08:48:33;;;;;;;1.00;0.50;;;;;;;16.40;41.73;97691.94;5022084;28;20041;-67
2022/03/14 08:51:00;;;;;;;1.30;0.30;;;;;;;15.27;44.53;97690.22;5006332;28;20148;-68
2022/03/14 08:53:25;;;;;;;1.38;0.40;;;;;;;16.46;41.86;97691.56;5011224;28;20069;-67
2022/03/14 08:55:52;;;;;;;2.58;0.43;;;;;;;16.09;42.29;97690.44;5008069;28;20109;-68
2022/03/14 08:58:17;;;;;;;2.78;0.40;;;;;;;17.14;40.13;97692.13;5018948;28;20045;-67
2022/03/14 09:00:43;;;;;;;3.20;0.70;;;;;;;17.14;40.01;97689.34;5024521;28;20364;-68
2022/03/14 09:03:09;;;;;;;1.02;0.50;;;;;;;16.32;41.88;97689.47;5020052;28;20041;-66
2022/03/14 09:05:35;;;;;;;2.30;0.55;;;;;;;15.16;44.33;97690.06;5025985;28;20076;-65
2022/03/14 09:08:02;;;;;;;3.55;0.75;;;;;;;15.66;42.51;97689.91;5026222;28;20697;-66
2022/03/14 09:10:31;;;;;;;1.75;0.50;;;;;;;16.32;41.84;97683.97;5020817;28;20045;-67
2022/03/14 09:12:57;;;;;;;2.60;0.30;;;;;;;16.10;42.37;97693.97;5022821;28;20102;-66
2022/03/14 09:15:23;;;;;;;0.93;0.50;;;;;;;16.42;41.51;97692.34;5023318;28;20258;-67
2022/03/14 09:17:57;;;;;;;2.78;0.60;;;;;;;16.57;41.14;97698.78;5032798;28;20042;-67
2022/03/14 09:20:25;;;;;;;2.30;0.60;;;;;;;15.89;42.42;97700.09;5016663;28;20869;-68
2022/03/14 09:22:51;;;;;;;2.58;0.55;;;;;;;16.78;41.09;97700.94;5021630;28;20042;-67
2022/03/14 09:25:18;;;;;;;1.85;0.73;;;;;;;16.14;42.04;97709.44;5017860;28;20497;-65
2022/03/14 09:27:45;;;;;;;1.33;0.40;;;;;;;16.40;41.40;97700.22;5020897;28;20050;-68
2022/03/14 09:30:12;;;;;;;0.85;0.50;;;;;;;16.93;40.10;97701.88;5017417;28;20045;-68
2022/03/14 09:32:39;;;;;;;1.05;0.40;;;;;;;16.99;39.67;97705.84;4988794;28;20057;-69
2022/03/14 09:35:06;;;;;;;2.28;0.50;;;;;;;17.48;39.33;97703.78;4998148;28;20485;-64
2022/03/14 09:37:32;;;;;;;2.17;0.50;;;;;;;15.71;42.14;97699.84;5006048;28;20049;-68
2022/03/14 09:39:57;;;;;;;0.75;0.30;;;;;;;17.12;40.17;97708.31;5022578;28;20095;-71
2022/03/14 09:42:24;;;;;;;1.20;0.65;;;;;;;17.29;39.12;97710.41;5018016;28;20326;-70
2022/03/14 09:44:53;;;;;;;3.85;0.93;;;;;;;17.28;39.27;97711.56;5025516;28;20096;-69
2022/03/14 09:47:22;;;;;;;1.10;0.43;;;;;;;17.54;38.46;97713.31;5020116;28;20047;-67
2022/03/14 09:49:48;;;;;;;1.85;0.50;;;;;;;18.01;37.89;97704.44;5004067;28;20045;-67
2022/03/14 09:52:15;;;;;;;0.75;0.50;;;;;;;17.50;38.03;97706.97;5014586;28;20058;-67
2022/03/14 09:54:41;;;;;;;6.43;0.70;;;;;;;17.65;38.47;97709.81;5021550;28;20401;-66
2022/03/14 09:57:06;;;;;;;0.80;0.50;;;;;;;16.84;39.51;97715.25;5038160;23;20038;-65
2022/03/14 09:59:35;;;;;;;1.83;0.50;;;;;;;17.89;38.17;97717.44;5017616;28;20653;-64
2022/03/14 10:02:01;;;;;;;0.73;0.30;;;;;;;17.79;38.33;97709.88;5021578;28;20045;-65
2022/03/14 10:04:27;;;;;;;6.55;0.70;;;;;;;16.85;39.36;97711.28;5013605;28;20086;-65
2022/03/14 10:06:52;;;;;;;3.42;0.70;;;;;;;17.37;38.81;97712.03;5013536;28;20091;-64
2022/03/14 10:09:18;;;;;;;6.22;0.98;;;;;;;16.80;39.73;97706.88;5009580;28;20394;-65
2022/03/14 10:11:44;;;;;;;0.80;0.50;;;;;;;17.69;37.63;97708.63;5017178;28;20048;-65
2022/03/14 10:14:10;;;;;;;0.98;0.45;;;;;;;17.45;37.94;97714.81;5004577;28;20034;-70
2022/03/14 10:16:36;;;;;;;1.02;0.68;;;;;;;17.36;36.46;97717.97;5013368;28;20050;-66
2022/03/14 10:19:02;;;;;;;3.60;1.48;;;;;;;19.43;34.33;97708.44;5015047;28;20042;-67
2022/03/14 10:21:39;;;;;;;4.00;0.73;;;;;;;18.27;36.39;97711.59;4987067;28;20613;-64
2022/03/14 10:24:09;;;;;;;1.48;0.40;;;;;;;18.08;36.66;97715.53;5015289;28;20044;-66
2022/03/14 10:26:37;;;;;;;6.97;0.60;;;;;;;17.65;36.87;97720.88;5015351;28;20041;-65
2022/03/14 10:29:07;;;;;;;2.13;1.05;;;;;;;19.14;35.32;97721.59;4994010;28;20042;-67
2022/03/14 10:31:38;;;;;;;1.85;0.82;;;;;;;19.55;33.47;97726.66;5016972;28;20041;-64
2022/03/14 10:34:08;;;;;;;1.40;0.70;;;;;;;19.32;33.69;97727.13;5015344;28;20038;-67
2022/03/14 10:36:51;;;;;;;0.82;0.35;;;;;;;18.75;34.45;97719.59;5001794;28;20041;-64
2022/03/14 10:39:18;;;;;;;3.45;0.60;;;;;;;17.57;35.98;97731.13;5001742;28;20054;-67
2022/03/14 10:42:01;;;;;;;2.03;0.40;;;;;;;18.30;34.25;97728.25;5013359;28;20567;-64
2022/03/14 10:44:26;;;;;;;3.90;1.75;;;;;;;17.85;35.35;97732.44;5011719;28;20057;-67
2022/03/14 10:46:51;;;;;;;4.50;0.95;;;;;;;17.63;35.73;97726.81;5005979;28;20115;-67
2022/03/14 10:49:18;;;;;;;0.63;0.50;;;;;;;17.24;36.33;97726.59;5007877;28;20084;-65
2022/03/14 10:51:55;;;;;;;1.83;0.90;;;;;;;17.27;35.82;97723.84;5017724;28;20131;-63
2022/03/14 10:54:20;;;;;;;6.57;1.58;;;;;;;18.38;34.63;97717.19;5014816;28;20045;-64
2022/03/14 10:57:06;;;;;;;2.58;0.50;;;;;;;17.51;35.74;97724.38;5030483;28;20053;-66
2022/03/14 10:59:38;;;;;;;2.53;0.50;;;;;;;17.28;35.94;97724.63;5024246;28;20069;-65
2022/03/14 11:02:06;;;;;;;1.83;0.50;;;;;;;17.58;35.45;97724.41;5021376;28;20046;-68
2022/03/14 11:04:48;;;;;;;6.03;0.70;;;;;;;17.65;35.39;97720.88;5010229;28;20513;-64
2022/03/14 11:07:15;;;;;;;3.20;0.70;;;;;;;18.21;34.58;97724.28;5001603;28;20525;-67
2022/03/14 11:09:52;;;;;;;1.35;0.60;;;;;;;17.22;35.88;97726.97;4989226;28;20045;-65
2022/03/14 11:12:19;;;;;;;1.17;0.57;;;;;;;16.87;36.42;97741.34;5008020;28;20053;-67
2022/03/14 11:14:52;;;;;;;2.05;0.70;;;;;;;17.35;36.05;97732.97;5016819;28;20041;-63
2022/03/14 11:17:23;;;;;;;1.15;0.85;;;;;;;16.14;37.64;97741.81;5008669;28;20045;-65
2022/03/14 11:19:50;;;;;;;1.92;0.77;;;;;;;16.19;38.41;97731.22;5011808;28;20057;-65
2022/03/14 11:22:18;;;;;;;1.60;0.77;;;;;;;16.04;38.45;97735.78;5007465;28;20429;-66
2022/03/14 11:24:52;;;;;;;3.97;2.10;;;;;;;16.42;37.71;97725.53;5014535;28;20056;-64
2022/03/14 11:27:27;;;;;;;2.08;0.63;;;;;;;16.50;37.59;97720.06;5015733;28;20049;-66
2022/03/14 11:30:13;;;;;;;1.77;0.60;;;;;;;16.22;38.93;97719.41;5009426;28;20526;-66
2022/03/14 11:32:41;;;;;;;2.97;1.05;;;;;;;16.23;37.98;97714.66;5016001;28;20129;-65
2022/03/14 11:35:08;;;;;;;1.55;0.93;;;;;;;17.48;36.89;97702.97;5009989;28;20073;-67